Time;durP1;ratioP1;P1;durP2;ratioP2;P2;SDS_P1;SDS_P2;PMS_P1;PMS_P2;Temp;Humidity;BMP_temperature;BMP_pressure;BME280_temperature;BME280_humidity;BME280_pressure;Samples;Min_cycle;Max_cycle;Signal;HPM_P1;HPM_P2
2020/12/23 00:01:34;;;;;;;14.00;7.90;;;;;;;8.15;80.99;98655.20;2196600;81;21226;-78
2020/12/23 00:04:35;;;;;;;11.67;9.07;;;;;;;8.17;81.26;98659.13;2196188;81;21123;-79
2020/12/23 00:07:36;;;;;;;12.90;10.00;;;;;;;8.18;80.95;98649.19;2196574;81;21241;-80
2020/12/23 00:10:37;;;;;;;16.83;10.13;;;;;;;8.16;81.25;98656.95;2196546;81;21218;-81
2020/12/23 00:13:38;;;;;;;19.73;10.47;;;;;;;8.14;80.95;98647.38;2195247;81;21122;-78
2020/12/23 00:16:39;;;;;;;17.67;12.07;;;;;;;8.11;80.89;98652.09;2196032;81;21297;-79
2020/12/23 00:19:40;;;;;;;16.33;11.37;;;;;;;8.12;81.75;98658.17;2196329;81;21138;-79
2020/12/23 00:22:41;;;;;;;13.67;9.60;;;;;;;8.12;81.38;98663.38;2196579;81;21126;-78
2020/12/23 00:25:43;;;;;;;23.70;14.17;;;;;;;8.12;81.20;98666.85;2194911;81;21236;-79
2020/12/23 00:28:44;;;;;;;22.30;12.57;;;;;;;8.13;81.16;98671.62;2196495;81;21471;-79
2020/12/23 00:31:45;;;;;;;22.43;13.53;;;;;;;8.12;81.22;98669.88;2195790;81;21142;-81
2020/12/23 00:34:46;;;;;;;16.50;12.37;;;;;;;8.12;81.31;98684.17;2195701;81;21277;-79
2020/12/23 00:37:47;;;;;;;14.50;10.13;;;;;;;8.15;81.55;98687.70;2196634;81;21122;-79
2020/12/23 00:40:52;;;;;;;15.73;9.40;;;;;;;8.16;81.55;98688.16;2196597;81;21270;-79
2020/12/23 00:43:53;;;;;;;14.00;11.53;;;;;;;8.18;81.31;98682.56;2195985;81;21098;-79
2020/12/23 00:46:54;;;;;;;19.57;12.37;;;;;;;8.22;81.21;98694.77;2195732;81;21119;-79
2020/12/23 00:49:55;;;;;;;15.87;10.97;;;;;;;8.22;81.53;98686.97;2195769;81;21123;-79
2020/12/23 00:52:56;;;;;;;16.37;10.67;;;;;;;8.24;81.56;98701.30;2195723;81;21111;-79
2020/12/23 00:55:57;;;;;;;16.57;10.80;;;;;;;8.25;81.61;98701.33;2196383;81;21155;-80
2020/12/23 00:58:58;;;;;;;13.30;10.30;;;;;;;8.27;81.19;98709.16;2196657;81;21476;-79
2020/12/23 01:01:59;;;;;;;16.30;13.00;;;;;;;8.27;81.53;98717.84;2196831;81;21115;-79
2020/12/23 01:05:00;;;;;;;17.63;11.73;;;;;;;8.27;81.48;98724.34;2196412;81;21124;-80
2020/12/23 01:08:01;;;;;;;13.03;10.80;;;;;;;8.27;81.37;98720.44;2196047;81;21143;-79
2020/12/23 01:11:03;;;;;;;14.50;10.87;;;;;;;8.29;81.37;98718.74;2195928;81;21128;-79
2020/12/23 01:14:04;;;;;;;14.47;10.77;;;;;;;8.31;81.30;98711.84;2196025;81;21115;-80
2020/12/23 01:17:05;;;;;;;15.70;10.37;;;;;;;8.35;81.17;98710.63;2196438;81;21118;-80
2020/12/23 01:20:06;;;;;;;13.47;11.37;;;;;;;8.35;81.53;98704.13;2179863;81;21157;-81
2020/12/23 01:23:07;;;;;;;21.60;12.20;;;;;;;8.34;81.30;98699.78;2177165;82;21262;-80
2020/12/23 01:26:08;;;;;;;16.13;10.33;;;;;;;8.34;81.08;98688.08;2176818;82;21134;-80
2020/12/23 01:29:09;;;;;;;11.90;9.90;;;;;;;8.35;81.41;98692.01;2177169;82;21122;-79
2020/12/23 01:32:16;;;;;;;17.43;11.90;;;;;;;8.38;82.02;98705.06;2176557;82;21138;-80
2020/12/23 01:35:17;;;;;;;14.47;11.83;;;;;;;8.40;81.26;98706.39;2176356;82;21178;-79
2020/12/23 01:38:18;;;;;;;18.23;11.70;;;;;;;8.41;81.61;98713.34;2176301;82;21114;-79
2020/12/23 01:41:20;;;;;;;14.47;10.13;;;;;;;8.41;81.48;98717.25;2176111;82;21098;-79
2020/12/23 01:44:21;;;;;;;12.80;11.23;;;;;;;8.43;81.46;98722.05;2176414;82;21138;-79
2020/12/23 01:47:22;;;;;;;16.60;11.50;;;;;;;8.44;81.55;98729.89;2175973;82;21142;-80
2020/12/23 01:50:23;;;;;;;12.33;10.13;;;;;;;8.46;81.56;98723.41;2176310;82;21152;-78
2020/12/23 01:53:24;;;;;;;12.53;10.10;;;;;;;8.47;81.87;98726.47;2176402;82;21118;-80
2020/12/23 01:56:25;;;;;;;16.03;10.80;;;;;;;8.48;81.54;98721.72;2176141;82;21162;-79
2020/12/23 01:59:26;;;;;;;17.77;12.17;;;;;;;8.51;81.70;98726.97;2176760;82;21117;-79
2020/12/23 02:02:27;;;;;;;16.67;13.50;;;;;;;8.51;82.13;98729.58;2176412;82;21419;-79
2020/12/23 02:05:29;;;;;;;18.10;12.27;;;;;;;8.51;81.80;98731.75;2176722;82;21126;-79
2020/12/23 02:08:30;;;;;;;15.13;11.50;;;;;;;8.51;81.77;98718.75;2176537;82;21127;-80
2020/12/23 02:11:31;;;;;;;16.63;10.73;;;;;;;8.53;81.88;98713.56;2175710;82;21241;-79
2020/12/23 02:14:32;;;;;;;15.93;12.37;;;;;;;8.56;82.27;98722.30;2175699;82;21130;-79
2020/12/23 02:17:33;;;;;;;17.00;11.87;;;;;;;8.56;81.78;98725.33;2175678;82;21399;-80
2020/12/23 02:20:34;;;;;;;15.47;11.80;;;;;;;8.58;81.96;98731.44;2179065;81;21170;-80
2020/12/23 02:23:35;;;;;;;16.97;10.63;;;;;;;8.62;82.26;98734.55;2179286;82;21113;-81
2020/12/23 02:26:37;;;;;;;17.00;11.70;;;;;;;9.17;81.87;98722.05;2179107;82;21110;-81
2020/12/23 02:29:38;;;;;;;14.87;12.87;;;;;;;9.05;81.65;98709.27;2179872;82;21114;-82
2020/12/23 02:32:39;;;;;;;14.90;11.80;;;;;;;8.92;81.22;98709.07;2179253;82;21087;-81
2020/12/23 02:35:40;;;;;;;16.10;11.90;;;;;;;8.88;81.31;98709.00;2179265;82;21161;-81
2020/12/23 02:38:41;;;;;;;16.10;13.13;;;;;;;8.81;81.73;98712.34;2179942;82;21126;-81
2020/12/23 02:41:42;;;;;;;14.93;11.60;;;;;;;8.76;81.64;98720.50;2179521;82;21372;-80
2020/12/23 02:44:43;;;;;;;16.27;11.93;;;;;;;8.73;81.56;98710.92;2179611;82;21152;-80
2020/12/23 02:47:44;;;;;;;12.03;10.80;;;;;;;8.71;81.54;98723.03;2179497;82;21118;-81
2020/12/23 02:50:45;;;;;;;15.37;13.77;;;;;;;8.73;81.78;98734.34;2179793;82;21110;-81
2020/12/23 02:53:47;;;;;;;13.63;12.20;;;;;;;8.71;82.04;98729.95;2179143;82;21114;-81
2020/12/23 02:56:48;;;;;;;9.77;8.77;;;;;;;8.68;81.96;98735.98;2179666;82;21162;-80
2020/12/23 02:59:49;;;;;;;10.33;8.67;;;;;;;8.65;82.39;98736.33;2180085;82;21391;-81
2020/12/23 03:02:50;;;;;;;9.70;7.87;;;;;;;8.61;82.33;98740.17;2180140;82;21111;-80
2020/12/23 03:05:51;;;;;;;12.47;10.67;;;;;;;8.60;82.32;98735.82;2179561;82;21093;-80
2020/12/23 03:08:52;;;;;;;12.73;9.77;;;;;;;8.58;82.45;98728.41;2179603;82;21157;-80
2020/12/23 03:11:53;;;;;;;11.87;10.63;;;;;;;8.57;82.22;98727.08;2179232;82;21185;-80
2020/12/23 03:14:54;;;;;;;9.10;8.20;;;;;;;8.57;82.31;98737.48;2179831;82;21165;-80
2020/12/23 03:17:55;;;;;;;17.93;9.30;;;;;;;8.57;82.85;98727.08;2180212;82;21122;-79
2020/12/23 03:20:56;;;;;;;14.47;10.60;;;;;;;8.57;82.28;98725.78;2196035;81;21420;-82
2020/12/23 03:23:57;;;;;;;14.63;9.17;;;;;;;8.56;82.23;98718.83;2196547;81;21119;-80
2020/12/23 03:26:58;;;;;;;10.30;8.53;;;;;;;8.56;82.02;98722.30;2196108;81;21123;-80
2020/12/23 03:29:59;;;;;;;11.23;9.87;;;;;;;8.58;81.91;98719.73;2196229;81;21236;-79
2020/12/23 03:33:00;;;;;;;9.43;8.47;;;;;;;8.57;82.10;98729.69;2196119;81;21126;-81
2020/12/23 03:36:02;;;;;;;9.57;8.03;;;;;;;8.57;81.78;98720.58;2196238;81;21282;-79
2020/12/23 03:39:03;;;;;;;11.40;7.97;;;;;;;8.59;81.99;98730.59;2195928;81;21130;-80
2020/12/23 03:42:04;;;;;;;10.40;8.07;;;;;;;8.59;81.83;98737.09;2195945;81;21115;-81
2020/12/23 03:45:05;;;;;;;11.43;9.07;;;;;;;8.59;81.68;98744.90;2196569;81;21126;-81
2020/12/23 03:48:06;;;;;;;10.57;9.47;;;;;;;8.57;81.68;98743.99;2196686;81;21126;-79
2020/12/23 03:51:07;;;;;;;10.97;9.27;;;;;;;8.57;81.74;98742.69;2196566;81;21087;-81
2020/12/23 03:54:08;;;;;;;10.23;9.20;;;;;;;8.57;81.67;98733.59;2196370;81;21237;-79
2020/12/23 03:57:09;;;;;;;12.70;9.83;;;;;;;8.61;81.67;98723.69;2196397;81;21126;-80
2020/12/23 04:00:10;;;;;;;12.43;10.33;;;;;;;8.65;81.43;98723.31;2196876;81;21118;-80
2020/12/23 04:03:11;;;;;;;12.77;10.17;;;;;;;8.63;81.29;98711.58;2196773;81;21118;-80
2020/12/23 04:06:12;;;;;;;11.83;10.63;;;;;;;8.63;81.26;98715.48;2196865;81;21393;-81
2020/12/23 04:09:13;;;;;;;10.47;9.37;;;;;;;8.61;81.27;98725.86;2196941;81;21087;-81
2020/12/23 04:12:14;;;;;;;13.40;10.47;;;;;;;8.58;81.48;98724.94;2196004;81;21127;-80
2020/12/23 04:15:15;;;;;;;12.17;10.70;;;;;;;8.55;81.23;98730.95;2196074;81;21130;-80
2020/12/23 04:18:18;;;;;;;14.00;10.97;;;;;;;8.52;81.26;98741.31;2195639;81;21091;-78
2020/12/23 04:21:19;;;;;;;14.33;10.77;;;;;;;8.52;81.36;98730.02;2195856;81;21170;-82
2020/12/23 04:24:20;;;;;;;16.17;13.30;;;;;;;8.55;81.34;98727.48;2195986;81;21114;-80
2020/12/23 04:27:21;;;;;;;12.87;11.47;;;;;;;8.54;81.33;98734.41;2195743;81;21122;-81
2020/12/23 04:30:25;;;;;;;13.30;11.08;;;;;;;8.55;81.23;98731.38;2196068;81;21119;-80
2020/12/23 04:33:26;;;;;;;18.00;12.60;;;;;;;8.59;81.27;98739.69;2195896;81;21130;-80
2020/12/23 04:36:27;;;;;;;16.83;13.23;;;;;;;8.57;81.14;98739.66;2195374;81;21161;-80
2020/12/23 04:39:28;;;;;;;16.90;14.27;;;;;;;8.57;81.21;98747.89;2195571;81;21111;-80
2020/12/23 04:42:29;;;;;;;17.67;12.40;;;;;;;8.54;81.38;98744.81;2194895;81;21491;-82
2020/12/23 04:45:30;;;;;;;15.23;13.63;;;;;;;8.53;81.16;98734.38;2195215;81;21111;-80
2020/12/23 04:48:31;;;;;;;18.50;16.50;;;;;;;8.52;81.31;98749.54;2194057;81;21244;-82
2020/12/23 04:51:33;;;;;;;22.73;15.57;;;;;;;8.54;81.43;98743.94;2193012;81;21292;-80
2020/12/23 04:54:34;;;;;;;19.97;17.63;;;;;;;8.56;81.46;98738.34;2192886;81;21154;-81
2020/12/23 04:57:35;;;;;;;19.90;16.67;;;;;;;8.53;81.27;98734.38;2192448;81;21727;-80
2020/12/23 05:00:37;;;;;;;23.00;16.93;;;;;;;8.52;81.26;98732.62;2193221;81;21233;-80
2020/12/23 05:03:38;;;;;;;16.47;14.57;;;;;;;8.55;81.25;98736.59;2193405;81;21578;-80
2020/12/23 05:06:39;;;;;;;17.83;13.73;;;;;;;8.56;81.18;98737.91;2194277;81;21241;-80
2020/12/23 05:09:40;;;;;;;17.63;15.63;;;;;;;8.57;81.12;98740.09;2194517;81;21269;-80
2020/12/23 05:12:41;;;;;;;21.87;15.90;;;;;;;8.54;81.08;98744.81;2193678;81;21399;-80
2020/12/23 05:15:42;;;;;;;22.33;17.13;;;;;;;8.53;81.26;98749.98;2194080;81;21270;-80
2020/12/23 05:18:43;;;;;;;23.70;18.17;;;;;;;8.51;81.18;98747.78;2194079;81;21257;-81
2020/12/23 05:21:44;;;;;;;24.37;18.73;;;;;;;8.50;81.16;98749.52;2193515;81;21221;-81
2020/12/23 05:24:45;;;;;;;32.80;23.00;;;;;;;8.51;81.18;98758.19;2193586;81;21273;-80
2020/12/23 05:27:46;;;;;;;38.07;29.10;;;;;;;8.52;81.37;98758.64;2192004;81;21240;-80
2020/12/23 05:30:47;;;;;;;43.17;32.00;;;;;;;8.65;81.73;98759.74;2193386;81;21237;-80
2020/12/23 05:33:48;;;;;;;42.83;28.40;;;;;;;8.64;81.24;98757.56;2193950;81;21217;-81
2020/12/23 05:36:50;;;;;;;33.87;25.17;;;;;;;8.62;81.19;98754.06;2193900;81;21265;-82
2020/12/23 05:39:51;;;;;;;33.80;25.20;;;;;;;8.61;81.12;98758.39;2195265;81;21568;-83
2020/12/23 05:42:52;;;;;;;32.17;27.13;;;;;;;8.62;81.04;98761.44;2194511;81;21330;-81
2020/12/23 05:45:53;;;;;;;35.30;27.67;;;;;;;8.65;81.03;98763.64;2193872;81;21130;-81
2020/12/23 05:48:54;;;;;;;26.77;22.47;;;;;;;8.62;81.01;98766.64;2194072;81;21254;-82
2020/12/23 05:51:55;;;;;;;21.67;18.67;;;;;;;8.62;81.05;98781.37;2193666;81;21234;-81
2020/12/23 05:54:56;;;;;;;27.23;20.77;;;;;;;8.60;81.01;98780.47;2192918;81;21292;-79
2020/12/23 05:57:57;;;;;;;38.33;27.93;;;;;;;8.58;80.94;98773.06;2192623;81;21233;-80
2020/12/23 06:00:58;;;;;;;45.10;31.13;;;;;;;8.57;81.02;98767.41;2192705;81;21233;-81
2020/12/23 06:04:00;;;;;;;51.43;35.13;;;;;;;8.53;81.02;98781.20;2193890;81;21242;-81
2020/12/23 06:07:01;;;;;;;48.23;35.03;;;;;;;8.49;81.09;98773.77;2193647;81;21245;-82
2020/12/23 06:10:02;;;;;;;43.70;30.40;;;;;;;8.49;81.20;98775.49;2193505;81;21253;-80
2020/12/23 06:13:03;;;;;;;34.90;23.90;;;;;;;8.53;81.24;98787.28;2194455;81;21293;-80
2020/12/23 06:16:04;;;;;;;30.80;23.30;;;;;;;8.55;81.08;98788.19;2195048;81;21273;-81
2020/12/23 06:19:05;;;;;;;37.33;27.67;;;;;;;8.57;81.12;98794.73;2194031;81;21269;-80
2020/12/23 06:22:06;;;;;;;47.33;30.37;;;;;;;8.56;81.10;98803.38;2193825;81;21119;-80
2020/12/23 06:25:07;;;;;;;38.13;29.33;;;;;;;8.53;81.09;98802.02;2193009;81;21257;-80
2020/12/23 06:28:08;;;;;;;56.27;34.37;;;;;;;8.49;81.09;98800.20;2192798;81;21229;-79
2020/12/23 06:31:09;;;;;;;39.73;27.77;;;;;;;8.50;81.17;98800.66;2193104;81;21233;-80
2020/12/23 06:34:11;;;;;;;38.93;28.07;;;;;;;8.49;81.20;98799.78;2193494;81;21269;-79
2020/12/23 06:37:12;;;;;;;33.43;25.67;;;;;;;8.50;81.15;98803.27;2193937;81;21239;-78
2020/12/23 06:40:13;;;;;;;37.60;23.80;;;;;;;8.52;81.19;98808.95;2192248;81;21261;-78
2020/12/23 06:43:14;;;;;;;34.73;23.33;;;;;;;8.50;81.08;98808.04;2192417;81;21161;-78
2020/12/23 06:46:15;;;;;;;33.03;24.70;;;;;;;8.49;81.05;98804.98;2192891;81;21256;-78
2020/12/23 06:49:16;;;;;;;36.60;27.37;;;;;;;8.52;81.08;98810.25;2192923;81;21181;-78
2020/12/23 06:52:17;;;;;;;38.77;25.83;;;;;;;8.57;81.08;98812.94;2192522;81;21257;-79
2020/12/23 06:55:18;;;;;;;42.77;26.93;;;;;;;8.58;80.96;98817.30;2193541;81;21276;-81
2020/12/23 06:58:20;;;;;;;32.33;21.90;;;;;;;8.58;80.91;98809.48;2193390;81;21225;-79
2020/12/23 07:01:21;;;;;;;40.47;25.73;;;;;;;8.57;80.80;98812.52;2192639;81;21257;-80
2020/12/23 07:04:24;;;;;;;42.60;28.00;;;;;;;8.55;80.79;98810.73;2192897;81;21257;-81
2020/12/23 07:07:24;;;;;;;37.37;27.57;;;;;;;8.54;80.87;98806.38;2192809;81;21244;-79
2020/12/23 07:10:26;;;;;;;32.83;23.23;;;;;;;8.54;80.88;98807.68;2192842;81;21249;-79
2020/12/23 07:13:27;;;;;;;34.27;24.00;;;;;;;8.56;80.84;98807.28;2192462;81;21583;-79
2020/12/23 07:16:28;;;;;;;31.13;24.03;;;;;;;8.54;80.71;98803.35;2192977;81;21301;-79
2020/12/23 07:19:29;;;;;;;26.97;20.73;;;;;;;8.55;80.66;98814.21;2191542;81;21249;-78
2020/12/23 07:22:30;;;;;;;32.70;24.50;;;;;;;8.53;80.64;98809.83;2173105;82;21257;-80
2020/12/23 07:25:31;;;;;;;28.70;21.30;;;;;;;8.51;80.72;98809.80;2172320;82;21545;-79
2020/12/23 07:28:33;;;;;;;30.27;21.03;;;;;;;8.55;80.73;98806.83;2172401;82;21238;-79
2020/12/23 07:31:35;;;;;;;32.03;23.10;;;;;;;8.60;80.60;98816.90;2173436;82;21122;-81
2020/12/23 07:34:36;;;;;;;34.77;24.30;;;;;;;8.63;80.59;98817.83;2173807;82;21393;-80
2020/12/23 07:37:38;;;;;;;33.27;25.73;;;;;;;8.67;80.49;98805.80;2173636;82;21403;-80
2020/12/23 07:40:39;;;;;;;36.77;24.23;;;;;;;8.70;80.42;98812.36;2174330;82;21114;-81
2020/12/23 07:43:40;;;;;;;37.90;24.10;;;;;;;8.70;80.19;98807.15;2174000;82;21157;-81
2020/12/23 07:46:41;;;;;;;31.70;22.30;;;;;;;8.74;80.16;98810.27;2173233;82;21259;-81
2020/12/23 07:49:42;;;;;;;32.83;23.63;;;;;;;8.71;80.03;98811.93;2173597;82;21122;-80
2020/12/23 07:52:43;;;;;;;37.97;27.27;;;;;;;8.68;80.04;98798.86;2173132;82;21284;-80
2020/12/23 07:55:46;;;;;;;31.53;21.40;;;;;;;8.67;80.11;98810.09;2173004;82;21296;-82
2020/12/23 07:58:47;;;;;;;34.53;23.23;;;;;;;8.69;80.04;98806.70;2172444;82;21315;-80
2020/12/23 08:01:49;;;;;;;42.03;26.63;;;;;;;8.72;79.99;98812.38;2172969;82;21172;-78
2020/12/23 08:04:51;;;;;;;40.50;27.13;;;;;;;8.73;79.92;98825.84;2172560;82;21256;-79
2020/12/23 08:07:52;;;;;;;47.30;33.10;;;;;;;8.74;79.96;98816.77;2173750;82;21236;-80
2020/12/23 08:10:53;;;;;;;46.63;30.87;;;;;;;8.75;79.99;98817.64;2173393;82;21150;-81
2020/12/23 08:13:54;;;;;;;61.07;39.07;;;;;;;8.79;79.96;98824.23;2173445;82;21788;-81
2020/12/23 08:16:55;;;;;;;115.87;65.63;;;;;;;8.83;79.87;98824.74;2172985;82;21293;-80
2020/12/23 08:19:56;;;;;;;78.50;42.40;;;;;;;8.78;79.62;98819.00;2176755;81;21606;-81
2020/12/23 08:22:57;;;;;;;59.37;34.90;;;;;;;8.73;79.67;98813.72;2192853;81;21119;-78
2020/12/23 08:25:58;;;;;;;44.17;26.43;;;;;;;8.65;79.75;98815.69;2194090;81;21475;-82
2020/12/23 08:28:59;;;;;;;46.97;26.87;;;;;;;8.58;79.92;98826.41;2194116;81;21428;-81
2020/12/23 08:32:00;;;;;;;54.10;31.63;;;;;;;8.55;79.99;98822.44;2193507;81;21266;-80
2020/12/23 08:35:01;;;;;;;60.90;32.83;;;;;;;8.51;80.11;98827.13;2194651;81;21232;-80
2020/12/23 08:38:03;;;;;;;60.80;34.17;;;;;;;8.50;80.21;98831.88;2193922;81;21582;-80
2020/12/23 08:41:04;;;;;;;67.90;41.13;;;;;;;8.49;80.33;98846.61;2194772;81;21245;-81
2020/12/23 08:44:05;;;;;;;46.93;31.70;;;;;;;8.47;80.38;98847.00;2192893;81;21601;-80
2020/12/23 08:47:06;;;;;;;32.47;23.83;;;;;;;8.52;80.43;98847.09;2192708;81;21272;-80
2020/12/23 08:50:07;;;;;;;39.83;26.53;;;;;;;8.50;80.37;98852.27;2193161;81;21265;-82
2020/12/23 08:53:08;;;;;;;30.77;21.53;;;;;;;8.44;80.31;98850.84;2193442;81;21250;-82
2020/12/23 08:56:10;;;;;;;21.80;16.13;;;;;;;8.44;80.46;98848.24;2193380;81;21281;-79
2020/12/23 08:59:11;;;;;;;15.80;13.87;;;;;;;8.45;80.40;98847.82;2193551;81;21262;-79
2020/12/23 09:02:12;;;;;;;12.07;9.63;;;;;;;8.46;80.31;98854.77;2192841;81;21289;-79
2020/12/23 09:05:13;;;;;;;12.23;10.93;;;;;;;8.35;79.84;98854.98;2191905;81;21245;-80
2020/12/23 09:08:17;;;;;;;16.10;10.63;;;;;;;8.25;80.09;98849.55;2192778;81;21242;-79
2020/12/23 09:11:19;;;;;;;12.70;10.77;;;;;;;8.24;80.23;98851.70;2192992;81;21245;-80
2020/12/23 09:14:20;;;;;;;12.20;10.77;;;;;;;8.24;80.17;98854.72;2191995;81;21127;-80
2020/12/23 09:17:22;;;;;;;20.53;14.33;;;;;;;8.20;80.27;98855.08;2192081;81;21241;-79
2020/12/23 09:20:24;;;;;;;18.27;14.10;;;;;;;8.22;80.47;98861.19;2188293;81;21277;-81
2020/12/23 09:23:26;;;;;;;34.77;21.73;;;;;;;8.25;80.49;98862.98;2171888;82;21490;-80
2020/12/23 09:26:27;;;;;;;41.13;23.63;;;;;;;8.30;80.49;98856.15;2171675;82;21260;-81
2020/12/23 09:29:28;;;;;;;36.63;25.30;;;;;;;8.30;80.38;98853.55;2172386;82;21269;-79
2020/12/23 09:32:29;;;;;;;38.30;25.90;;;;;;;9.32;87.41;98846.44;2171794;82;21106;-81
2020/12/23 09:35:30;;;;;;;29.27;20.67;;;;;;;10.45;81.37;98838.61;2172038;82;21277;-81
2020/12/23 09:38:34;;;;;;;47.53;23.90;;;;;;;11.60;80.77;98842.39;2172638;82;21283;-80
2020/12/23 09:41:35;;;;;;;32.45;19.67;;;;;;;12.18;76.74;98832.37;2174826;82;21137;-81
2020/12/23 09:44:37;;;;;;;48.83;22.50;;;;;;;12.28;76.85;98838.09;2174446;82;21130;-81
2020/12/23 09:47:38;;;;;;;36.13;17.62;;;;;;;12.08;71.79;98832.72;2173763;82;21122;-80
2020/12/23 09:50:39;;;;;;;27.90;17.25;;;;;;;11.33;71.77;98836.08;2173929;82;21121;-79
2020/12/23 09:53:41;;;;;;;29.98;17.98;;;;;;;11.56;75.70;98824.93;2174120;82;21261;-80
2020/12/23 09:56:42;;;;;;;25.27;15.32;;;;;;;11.97;72.15;98819.58;2173272;82;21229;-81
2020/12/23 09:59:43;;;;;;;26.52;16.60;;;;;;;11.78;73.31;98817.28;2173906;82;21165;-81
2020/12/23 10:02:44;;;;;;;14.47;11.85;;;;;;;12.98;76.84;98816.06;2174278;82;21118;-81
2020/12/23 10:05:45;;;;;;;12.13;9.93;;;;;;;13.67;72.09;98800.84;2174855;82;21122;-81
2020/12/23 10:08:47;;;;;;;15.15;11.78;;;;;;;13.51;68.74;98804.80;2175192;82;21118;-81
2020/12/23 10:11:48;;;;;;;17.50;15.72;;;;;;;13.41;68.77;98801.74;2173880;82;21172;-81
2020/12/23 10:14:49;;;;;;;15.18;13.68;;;;;;;12.65;68.75;98807.69;2173704;82;21292;-80
2020/12/23 10:17:50;;;;;;;11.28;9.33;;;;;;;12.79;70.79;98805.11;2175168;82;21122;-79
2020/12/23 10:20:51;;;;;;;10.30;8.80;;;;;;;13.08;68.94;98811.30;2178867;81;21269;-80
2020/12/23 10:23:52;;;;;;;10.53;8.08;;;;;;;12.62;68.88;98808.55;2193483;81;21250;-80
2020/12/23 10:26:53;;;;;;;34.08;19.67;;;;;;;12.99;71.07;98803.39;2194210;81;21838;-80
2020/12/23 10:29:56;;;;;;;23.83;14.68;;;;;;;14.07;70.32;98798.61;2193718;81;21284;-81
2020/12/23 10:32:57;;;;;;;28.80;16.32;;;;;;;14.86;67.69;98803.58;2194395;81;21233;-80
2020/12/23 10:35:58;;;;;;;22.15;13.98;;;;;;;13.94;63.85;98804.33;2194970;81;21293;-79
2020/12/23 10:39:02;;;;;;;31.95;15.38;;;;;;;12.96;64.74;98798.16;2194874;81;21633;-81
2020/12/23 10:42:03;;;;;;;14.10;9.65;;;;;;;12.48;65.58;98795.85;2193967;81;21246;-81
2020/12/23 10:45:06;;;;;;;7.12;5.28;;;;;;;11.86;67.00;98791.61;2193004;81;21138;-81
2020/12/23 10:48:07;;;;;;;11.57;7.83;;;;;;;12.09;68.15;98788.25;2193700;81;21241;-79
2020/12/23 10:51:08;;;;;;;12.37;8.55;;;;;;;12.08;67.66;98779.95;2193754;81;21146;-80
2020/12/23 10:54:09;;;;;;;11.93;8.78;;;;;;;11.68;66.67;98787.98;2194187;81;21242;-79
2020/12/23 10:57:13;;;;;;;19.20;12.88;;;;;;;11.16;66.97;98798.44;2193740;81;21917;-78
2020/12/23 11:00:15;;;;;;;38.30;22.40;;;;;;;10.42;68.08;98798.13;2193624;81;21241;-79
2020/12/23 11:03:16;;;;;;;25.05;16.35;;;;;;;10.80;73.13;98789.41;2194000;81;21265;-79
2020/12/23 11:06:18;;;;;;;15.53;9.08;;;;;;;12.21;71.57;98777.43;2193741;81;21240;-79
2020/12/23 11:09:19;;;;;;;9.40;6.15;;;;;;;12.19;66.90;98781.34;2194125;81;21244;-79
2020/12/23 11:12:20;;;;;;;7.42;4.97;;;;;;;11.51;66.68;98780.45;2194326;81;21269;-81
2020/12/23 11:15:21;;;;;;;11.88;6.70;;;;;;;10.80;67.52;98785.92;2193427;81;21289;-77
2020/12/23 11:18:22;;;;;;;14.07;8.48;;;;;;;10.39;68.55;98793.27;2193437;81;21431;-82
2020/12/23 11:21:23;;;;;;;37.08;15.72;;;;;;;10.13;69.34;98792.92;2194129;81;21292;-81
2020/12/23 11:24:24;;;;;;;5.97;5.07;;;;;;;9.89;69.95;98789.56;2193956;81;21126;-82
2020/12/23 11:27:25;;;;;;;8.30;5.97;;;;;;;9.82;70.49;98792.94;2193156;81;21504;-81
2020/12/23 11:30:27;;;;;;;10.00;5.93;;;;;;;9.68;70.83;98795.35;2193153;81;21269;-82
2020/12/23 11:33:28;;;;;;;7.90;5.53;;;;;;;9.50;71.24;98798.53;2193183;81;21241;-80
2020/12/23 11:36:29;;;;;;;16.53;8.13;;;;;;;9.30;71.79;98803.85;2192896;81;21281;-78
2020/12/23 11:39:30;;;;;;;22.17;9.40;;;;;;;9.19;72.46;98790.66;2193440;81;21257;-82
2020/12/23 11:42:31;;;;;;;17.50;7.00;;;;;;;9.21;72.48;98791.98;2193414;81;21095;-80
2020/12/23 11:45:32;;;;;;;6.23;5.10;;;;;;;9.29;72.74;98791.68;2193110;81;21229;-81
2020/12/23 11:48:34;;;;;;;6.33;5.50;;;;;;;9.34;72.70;98788.72;2193300;81;21224;-80
2020/12/23 11:51:35;;;;;;;6.07;4.83;;;;;;;9.32;72.65;98788.25;2194298;81;21103;-80
2020/12/23 11:54:36;;;;;;;7.63;5.07;;;;;;;9.30;72.70;98783.02;2193674;81;21122;-81
2020/12/23 11:57:38;;;;;;;5.93;4.90;;;;;;;9.23;72.90;98779.44;2193653;81;21241;-81
2020/12/23 12:00:39;;;;;;;6.77;4.90;;;;;;;9.25;72.99;98781.64;2194139;81;21278;-81
2020/12/23 12:03:40;;;;;;;6.70;5.33;;;;;;;9.28;73.26;98784.72;2193230;81;21225;-82
2020/12/23 12:06:41;;;;;;;10.07;6.03;;;;;;;9.25;73.15;98787.27;2193573;81;21252;-81
2020/12/23 12:09:42;;;;;;;14.77;8.33;;;;;;;9.20;73.27;98785.02;2193149;81;21233;-82
2020/12/23 12:12:44;;;;;;;82.33;49.83;;;;;;;9.24;74.27;98776.41;2195188;81;21155;-81
2020/12/23 12:15:45;;;;;;;7.87;6.30;;;;;;;9.34;73.72;98783.52;2194623;81;21167;-82
2020/12/23 12:18:46;;;;;;;9.70;7.70;;;;;;;9.27;73.44;98782.97;2193611;81;21237;-81
2020/12/23 12:21:47;;;;;;;16.33;10.93;;;;;;;9.22;73.81;98778.11;2195109;81;21284;-81
2020/12/23 12:24:48;;;;;;;16.50;8.90;;;;;;;9.22;74.17;98774.20;2195019;81;21146;-80
2020/12/23 12:27:49;;;;;;;15.50;9.67;;;;;;;9.29;74.36;98770.84;2195206;81;21229;-80
2020/12/23 12:30:50;;;;;;;27.00;14.50;;;;;;;9.39;74.33;98768.83;2193756;81;21893;-82
2020/12/23 12:33:52;;;;;;;25.80;15.33;;;;;;;9.51;74.19;98766.83;2194443;81;21238;-81
2020/12/23 12:36:53;;;;;;;12.93;8.73;;;;;;;9.57;74.17;98769.56;2193851;81;21289;-80
2020/12/23 12:39:54;;;;;;;10.17;8.37;;;;;;;9.62;74.05;98765.72;2192582;81;21237;-81
2020/12/23 12:42:56;;;;;;;7.80;6.03;;;;;;;9.59;73.98;98767.86;2193445;81;21230;-79
2020/12/23 12:45:57;;;;;;;7.17;6.33;;;;;;;9.57;73.99;98773.47;2193931;81;21629;-81
2020/12/23 12:48:59;;;;;;;7.03;5.80;;;;;;;9.56;74.05;98776.94;2193753;81;21250;-80
2020/12/23 12:52:00;;;;;;;11.47;7.83;;;;;;;9.56;74.16;98781.72;2194127;81;21225;-80
2020/12/23 12:55:01;;;;;;;11.37;7.07;;;;;;;9.58;74.09;98777.41;2193885;81;21170;-80
2020/12/23 12:58:02;;;;;;;9.20;7.40;;;;;;;9.58;73.79;98775.22;2193883;81;21238;-80
2020/12/23 13:01:05;;;;;;;9.10;7.53;;;;;;;9.55;73.75;98779.97;2194897;81;21212;-80
2020/12/23 13:04:06;;;;;;;10.10;7.60;;;;;;;9.53;73.91;98790.76;2192266;81;21341;-80
2020/12/23 13:07:07;;;;;;;10.73;7.07;;;;;;;9.49;73.92;98791.56;2191048;81;21245;-80
2020/12/23 13:10:08;;;;;;;14.90;10.90;;;;;;;9.44;74.07;98795.83;2191162;81;21298;-80
2020/12/23 13:13:09;;;;;;;11.80;9.40;;;;;;;9.39;74.13;98801.82;2192269;81;21531;-78
2020/12/23 13:16:10;;;;;;;8.80;7.27;;;;;;;9.33;74.48;98803.91;2193341;81;21155;-80
2020/12/23 13:19:12;;;;;;;11.33;8.80;;;;;;;9.27;74.52;98809.02;2193441;81;21516;-77
2020/12/23 13:22:15;;;;;;;108.13;68.97;;;;;;;9.24;74.80;98812.44;2193070;81;21312;-78
2020/12/23 13:25:16;;;;;;;30.00;22.00;;;;;;;9.25;74.87;98799.00;2193707;81;21280;-78
2020/12/23 13:28:18;;;;;;;11.23;6.80;;;;;;;9.31;74.84;98806.03;2194188;81;21347;-81
2020/12/23 13:31:19;;;;;;;8.37;6.13;;;;;;;9.33;74.89;98805.20;2194305;81;21615;-82
2020/12/23 13:34:22;;;;;;;8.23;6.30;;;;;;;9.31;74.96;98813.84;2194906;81;21319;-81
2020/12/23 13:37:23;;;;;;;10.70;9.03;;;;;;;9.27;75.11;98807.71;2194129;81;21626;-80
2020/12/23 13:40:24;;;;;;;11.83;7.97;;;;;;;9.24;75.18;98804.63;2193858;81;21249;-80
2020/12/23 13:43:25;;;;;;;11.20;8.57;;;;;;;9.24;75.45;98802.45;2194247;81;21252;-79
2020/12/23 13:46:26;;;;;;;12.90;9.23;;;;;;;9.22;75.57;98805.45;2193945;81;21265;-81
2020/12/23 13:49:27;;;;;;;12.03;9.87;;;;;;;9.17;75.75;98805.81;2195177;81;21246;-81
2020/12/23 13:52:28;;;;;;;14.87;10.97;;;;;;;9.15;75.86;98808.81;2195648;81;21241;-81
2020/12/23 13:55:29;;;;;;;15.40;11.40;;;;;;;9.12;76.03;98808.76;2196305;81;21598;-81
2020/12/23 13:58:31;;;;;;;22.13;15.30;;;;;;;9.09;76.10;98805.68;2196553;81;21209;-81
2020/12/23 14:01:32;;;;;;;21.33;16.40;;;;;;;9.06;76.08;98799.55;2196232;81;21233;-82
2020/12/23 14:04:33;;;;;;;23.47;17.47;;;;;;;9.05;76.22;98797.79;2194963;81;21259;-81